createdAt,value
2022-09-25T00:00:44.585Z,12.64
2022-09-25T00:05:47.119Z,12.59
2022-09-25T00:10:50.683Z,12.81
2022-09-25T00:15:56.175Z,12.86
2022-09-25T00:21:01.569Z,12.72
2022-09-25T00:26:05.951Z,12.87
2022-09-25T00:31:08.289Z,12.89
2022-09-25T00:36:10.522Z,12.91
2022-09-25T00:41:12.268Z,12.75
2022-09-25T00:46:20.078Z,12.60
2022-09-25T00:51:28.146Z,12.38
2022-09-25T00:56:34.838Z,12.39
2022-09-25T01:01:36.441Z,12.71
2022-09-25T01:06:38.119Z,12.59
2022-09-25T01:11:39.639Z,12.78
2022-09-25T01:16:56.268Z,12.82
2022-09-25T01:22:06.861Z,12.82
2022-09-25T01:27:30.787Z,12.78
2022-09-25T01:33:03.405Z,12.64
2022-09-25T01:38:39.626Z,12.63
2022-09-25T01:44:33.764Z,12.77
2022-09-25T01:49:45.778Z,12.62
2022-09-25T01:54:54.315Z,12.57
2022-09-25T01:59:59.872Z,12.68
2022-09-25T02:05:05.726Z,12.80
2022-09-25T02:10:46.754Z,12.63
2022-09-25T02:15:55.586Z,12.86
2022-09-25T02:21:16.601Z,12.92
2022-09-25T02:26:25.027Z,12.93
2022-09-25T02:31:35.663Z,12.77
2022-09-25T02:36:37.310Z,12.62
2022-09-25T02:42:04.564Z,12.88
2022-09-25T02:47:08.766Z,12.82
2022-09-25T02:52:26.704Z,12.93
2022-09-25T02:58:02.655Z,12.85
2022-09-25T03:03:06.180Z,12.81
2022-09-25T03:08:26.492Z,12.73
2022-09-25T03:13:33.154Z,12.57
2022-09-25T03:18:34.731Z,12.57
2022-09-25T03:23:36.293Z,12.65
2022-09-25T03:28:37.812Z,12.68
2022-09-25T03:33:42.544Z,12.65
2022-09-25T03:38:45.864Z,12.53
2022-09-25T03:43:51.211Z,12.55
2022-09-25T03:48:53.526Z,12.80
2022-09-25T03:53:55.391Z,12.87
2022-09-25T03:58:57.471Z,12.99
2022-09-25T04:04:01.092Z,12.95
2022-09-25T04:09:02.594Z,12.77
2022-09-25T04:14:04.878Z,12.60
2022-09-25T04:19:06.935Z,12.60
2022-09-25T04:24:27.004Z,12.68
2022-09-25T04:29:29.062Z,12.76
2022-09-25T04:34:30.914Z,12.86
2022-09-25T04:39:32.420Z,12.60
2022-09-25T04:44:33.944Z,12.80
2022-09-25T04:49:36.335Z,12.88
2022-09-25T04:54:37.850Z,12.89
2022-09-25T04:59:39.434Z,12.74
2022-09-25T05:04:41.167Z,12.78
2022-09-25T05:09:42.672Z,12.58
2022-09-25T05:14:44.217Z,12.68
2022-09-25T05:19:45.719Z,12.81
2022-09-25T05:24:47.242Z,12.75
2022-09-25T05:29:49.562Z,12.59
2022-09-25T05:34:51.078Z,12.70
2022-09-25T05:39:52.682Z,12.70
2022-09-25T05:44:54.175Z,12.74
2022-09-25T05:49:55.725Z,12.88
2022-09-25T05:54:57.357Z,12.90
2022-09-25T05:59:59.230Z,12.82
2022-09-25T06:05:00.753Z,12.96
2022-09-25T06:10:02.409Z,12.86
2022-09-25T06:15:04.275Z,13.07
2022-09-25T06:20:06.188Z,12.94
2022-09-25T06:25:08.224Z,13.07
2022-09-25T06:30:10.078Z,13.06
2022-09-25T06:35:11.596Z,13.18
2022-09-25T06:40:13.210Z,13.36
2022-09-25T06:45:14.838Z,13.27
2022-09-25T06:50:16.460Z,13.13
2022-09-25T06:55:17.982Z,13.24
2022-09-25T07:00:19.609Z,13.21
2022-09-25T07:05:21.124Z,13.14
2022-09-25T07:10:22.673Z,13.14
2022-09-25T07:15:24.209Z,13.09
2022-09-25T07:20:25.776Z,13.29
2022-09-25T07:25:27.387Z,13.17
2022-09-25T07:30:29.592Z,13.39
2022-09-25T07:35:31.129Z,13.31
2022-09-25T07:40:35.430Z,13.29
2022-09-25T07:45:37.202Z,13.48
2022-09-25T07:50:38.785Z,13.51
2022-09-25T07:55:41.173Z,13.63
2022-09-25T08:00:43.492Z,13.79
2022-09-25T08:05:45.070Z,13.99
2022-09-25T08:10:46.612Z,14.04
2022-09-25T08:15:48.824Z,14.04
2022-09-25T08:20:50.478Z,14.09
2022-09-25T08:25:52.028Z,14.14
2022-09-25T08:30:54.214Z,14.15
2022-09-25T08:36:01.161Z,14.19
2022-09-25T08:41:09.465Z,14.26
2022-09-25T08:46:59.891Z,14.30
2022-09-25T08:52:05.115Z,14.34
2022-09-25T08:57:25.027Z,14.45
2022-09-25T09:02:35.772Z,14.60
2022-09-25T09:07:43.696Z,14.58
2022-09-25T09:12:48.040Z,14.69
2022-09-25T09:17:49.567Z,14.71
2022-09-25T09:22:52.814Z,14.79
2022-09-25T09:28:07.044Z,14.87
2022-09-25T09:33:20.746Z,14.99
2022-09-25T09:38:32.587Z,15.00
2022-09-25T09:43:58.719Z,15.10
2022-09-25T09:49:24.504Z,15.09
2022-09-25T09:54:35.729Z,15.24
2022-09-25T09:59:44.965Z,15.26
2022-09-25T10:04:47.063Z,15.22
2022-09-25T10:09:53.325Z,15.27
2022-09-25T10:14:55.489Z,15.31
2022-09-25T10:20:03.870Z,15.53
2022-09-25T10:25:06.569Z,15.67
2022-09-25T10:30:11.019Z,15.74
2022-09-25T10:35:21.405Z,15.66
2022-09-25T10:40:30.941Z,15.69
2022-09-25T10:45:33.774Z,15.78
2022-09-25T10:50:36.980Z,15.88
2022-09-25T10:55:43.895Z,15.89
2022-09-25T11:00:54.549Z,15.91
2022-09-25T11:06:21.039Z,15.99
2022-09-25T11:11:26.842Z,16.04
2022-09-25T11:16:48.705Z,16.17
2022-09-25T11:22:14.406Z,16.23
2022-09-25T11:27:21.678Z,16.20
2022-09-25T11:32:42.732Z,16.38
2022-09-25T11:38:41.822Z,16.50
2022-09-25T11:44:05.283Z,16.53
2022-09-25T11:49:19.366Z,16.63
2022-09-25T11:54:39.346Z,16.94
2022-09-25T11:59:47.036Z,17.11
2022-09-25T12:05:04.063Z,17.22
2022-09-25T12:10:24.677Z,17.20
2022-09-25T12:15:46.579Z,17.05
2022-09-25T12:21:05.952Z,17.12
2022-09-25T12:26:30.868Z,17.49
2022-09-25T12:32:00.580Z,17.35
2022-09-25T12:37:43.424Z,17.53
2022-09-25T12:42:52.560Z,17.27
2022-09-25T12:48:05.155Z,17.39
2022-09-25T12:53:30.624Z,17.39
2022-09-25T12:58:44.339Z,17.57
2022-09-25T13:04:10.925Z,17.53
2022-09-25T13:09:18.362Z,17.55
2022-09-25T13:14:28.339Z,17.52
2022-09-25T13:19:34.252Z,17.86
2022-09-25T13:24:44.504Z,17.68
2022-09-25T13:29:54.152Z,17.67
2022-09-25T13:34:58.547Z,17.76
2022-09-25T13:40:19.342Z,17.80
2022-09-25T13:45:32.402Z,17.96
2022-09-25T13:50:36.251Z,17.94
2022-09-25T13:55:42.238Z,17.89
2022-09-25T14:01:02.882Z,17.88
2022-09-25T14:06:07.565Z,17.75
2022-09-25T14:11:12.633Z,17.80
2022-09-25T14:16:25.930Z,17.80
2022-09-25T14:21:28.551Z,17.83
2022-09-25T14:26:30.125Z,17.72
2022-09-25T14:31:50.213Z,17.66
2022-09-25T14:37:05.115Z,17.77
2022-09-25T14:42:53.157Z,17.80
2022-09-25T14:47:57.570Z,17.80
2022-09-25T14:53:01.250Z,17.72
2022-09-25T14:58:03.222Z,17.88
2022-09-25T15:03:04.839Z,17.72
2022-09-25T15:08:30.942Z,17.66
2022-09-25T15:13:33.666Z,17.71
2022-09-25T15:18:39.860Z,17.71
2022-09-25T15:23:44.000Z,17.68
2022-09-25T15:28:45.855Z,17.73
2022-09-25T15:34:02.655Z,17.67
2022-09-25T15:39:13.775Z,17.67
2022-09-25T15:44:22.654Z,17.61
2022-09-25T15:49:28.080Z,17.62
2022-09-25T15:54:44.218Z,17.55
2022-09-25T16:00:07.667Z,17.48
2022-09-25T16:05:10.492Z,17.40
2022-09-25T16:10:17.962Z,17.40
2022-09-25T16:15:36.308Z,17.28
2022-09-25T16:20:39.613Z,17.24
2022-09-25T16:25:44.684Z,17.13
2022-09-25T16:31:07.881Z,17.10
2022-09-25T16:36:17.760Z,17.05
2022-09-25T16:41:22.100Z,16.97
2022-09-25T16:46:24.014Z,16.93
2022-09-25T16:51:30.025Z,16.90
2022-09-25T16:56:32.521Z,16.82
2022-09-25T17:01:34.282Z,16.81
2022-09-25T17:06:40.751Z,16.76
2022-09-25T17:11:44.976Z,16.70
2022-09-25T17:16:46.502Z,16.58
2022-09-25T17:21:53.060Z,16.53
2022-09-25T17:26:54.744Z,16.51
2022-09-25T17:31:56.267Z,16.45
2022-09-25T17:36:57.986Z,16.39
2022-09-25T17:42:02.935Z,16.40
2022-09-25T17:47:06.052Z,16.11
2022-09-25T17:52:09.494Z,16.13
2022-09-25T17:57:11.005Z,16.11
2022-09-25T18:02:15.252Z,16.03
2022-09-25T18:07:16.930Z,15.98
2022-09-25T18:12:18.469Z,15.86
2022-09-25T18:17:19.993Z,15.78
2022-09-25T18:22:25.242Z,15.68
2022-09-25T18:27:29.807Z,15.48
2022-09-25T18:32:31.666Z,15.50
2022-09-25T18:37:33.266Z,15.56
2022-09-25T18:42:34.801Z,15.55
2022-09-25T18:47:36.388Z,15.38
2022-09-25T18:52:38.180Z,15.36
2022-09-25T18:57:40.722Z,15.35
2022-09-25T19:02:43.287Z,15.52
2022-09-25T19:07:45.062Z,15.51
2022-09-25T19:12:47.010Z,15.51
2022-09-25T19:17:48.599Z,15.44
2022-09-25T19:22:50.761Z,15.45
2022-09-25T19:27:52.345Z,15.33
2022-09-25T19:32:53.863Z,15.24
2022-09-25T19:37:55.402Z,15.02
2022-09-25T19:42:57.953Z,14.91
2022-09-25T19:48:00.169Z,14.92
2022-09-25T19:53:01.974Z,15.13
2022-09-25T19:58:04.465Z,14.85
2022-09-25T20:03:06.085Z,14.49
2022-09-25T20:08:08.164Z,14.86
2022-09-25T20:13:10.246Z,14.84
2022-09-25T20:18:11.768Z,14.86
2022-09-25T20:23:13.344Z,14.84
2022-09-25T20:28:14.926Z,14.78
2022-09-25T20:33:17.261Z,14.70
2022-09-25T20:38:18.794Z,14.70
2022-09-25T20:43:21.588Z,14.83
2022-09-25T20:48:24.400Z,14.55
2022-09-25T20:53:27.792Z,14.68
2022-09-25T20:58:29.507Z,14.77
2022-09-25T21:03:35.878Z,14.78
2022-09-25T21:08:37.599Z,14.55
2022-09-25T21:13:40.360Z,14.22
2022-09-25T21:18:42.256Z,14.28
2022-09-25T21:23:48.263Z,14.46
2022-09-25T21:28:51.621Z,14.57
2022-09-25T21:33:54.395Z,14.31
2022-09-25T21:38:56.371Z,14.24
2022-09-25T21:44:04.154Z,14.42
2022-09-25T21:49:06.655Z,14.51
2022-09-25T21:54:10.139Z,14.48
2022-09-25T21:59:12.200Z,14.28
2022-09-25T22:04:15.282Z,14.17
2022-09-25T22:09:23.202Z,14.09
2022-09-25T22:14:24.769Z,14.25
2022-09-25T22:19:28.367Z,14.14
2022-09-25T22:24:29.964Z,14.34
2022-09-25T22:29:31.832Z,14.29
2022-09-25T22:34:33.373Z,14.30
2022-09-25T22:39:34.928Z,14.37
2022-09-25T22:44:36.451Z,14.24
2022-09-25T22:49:38.001Z,14.28
2022-09-25T22:54:39.619Z,14.31
2022-09-25T22:59:41.168Z,14.31
2022-09-25T23:04:44.814Z,14.28
2022-09-25T23:09:46.405Z,14.21
2022-09-25T23:14:47.925Z,14.31
2022-09-25T23:19:49.459Z,14.38
2022-09-25T23:24:50.981Z,14.31
2022-09-25T23:29:52.555Z,14.31
2022-09-25T23:34:54.107Z,14.28
2022-09-25T23:39:55.904Z,14.37
2022-09-25T23:44:57.889Z,14.34
2022-09-25T23:50:04.177Z,14.49
2022-09-25T23:55:06.622Z,14.45
